Terminal Aerodrome Forecast
Issued by NWS Binghamton, NY

Home | Current Version | Previous Version | Text Only | Print | Product List | Glossary On
Versions: 1 2 3 4 5 6 7 8 9 10 11 12 13 14 15 16 17 18
000
FTUS41 KBGM 301200 AAB
TAFBGM
TAF AMD
KBGM 301200Z 3012/3112 25007KT P6SM BKN060
      TEMPO 3012/3014 5SM BR
     FM310200 24005KT P6SM SCT050=

USA.gov is the U.S. government's official web portal to all federal, state and local government web resources and services.